createdAt,value
2018-11-14T00:00:30.565Z,87.08
2018-11-14T00:01:35.601Z,86.92
2018-11-14T00:02:39.970Z,87.38
2018-11-14T00:03:47.077Z,87.07
2018-11-14T00:04:51.634Z,87.28
2018-11-14T00:05:56.376Z,87.62
2018-11-14T00:07:03.233Z,87.47
2018-11-14T00:08:07.698Z,87.29
2018-11-14T00:09:12.657Z,87.56
2018-11-14T00:10:19.240Z,87.31
2018-11-14T00:11:23.213Z,87.48
2018-11-14T00:12:28.592Z,87.81
2018-11-14T00:13:33.260Z,87.68
2018-11-14T00:14:39.549Z,88.22
2018-11-14T00:15:44.042Z,88.26
2018-11-14T00:16:48.516Z,88.68
2018-11-14T00:17:53.254Z,88.62
2018-11-14T00:18:57.796Z,88.84
2018-11-14T00:20:02.448Z,89.02
2018-11-14T00:21:06.839Z,89.33
2018-11-14T00:22:13.614Z,89.41
2018-11-14T00:23:19.271Z,89.73
2018-11-14T00:24:24.574Z,89.54
2018-11-14T00:25:29.909Z,89.58
2018-11-14T00:26:34.725Z,89.58
2018-11-14T00:27:39.086Z,89.44
2018-11-14T00:28:43.478Z,89.57
2018-11-14T00:29:49.788Z,89.77
2018-11-14T00:30:54.495Z,89.80
2018-11-14T00:31:58.962Z,89.74
2018-11-14T00:33:04.584Z,89.37
2018-11-14T00:34:09.757Z,89.69
2018-11-14T00:35:15.205Z,89.38
2018-11-14T00:36:19.544Z,89.57
2018-11-14T00:37:23.934Z,89.63
2018-11-14T00:38:28.289Z,89.40
2018-11-14T00:39:33.552Z,89.23
2018-11-14T00:40:37.935Z,89.68
2018-11-14T00:41:43.702Z,89.56
2018-11-14T00:42:48.482Z,89.59
2018-11-14T00:43:53.518Z,89.24
2018-11-14T00:44:58.634Z,89.44
2018-11-14T00:46:04.138Z,89.33
2018-11-14T00:47:08.529Z,89.35
2018-11-14T00:48:13.033Z,89.18
2018-11-14T00:49:17.540Z,89.55
2018-11-14T00:50:22.198Z,89.49
2018-11-14T00:51:26.693Z,89.47
2018-11-14T00:52:31.707Z,89.45
2018-11-14T00:53:36.112Z,89.38
2018-11-14T00:54:41.594Z,89.41
2018-11-14T00:55:46.060Z,89.50
2018-11-14T00:56:50.508Z,89.13
2018-11-14T00:57:55.122Z,89.03
2018-11-14T00:59:00.573Z,89.17
2018-11-14T01:00:05.488Z,89.03
2018-11-14T01:01:09.858Z,89.43
2018-11-14T01:02:15.881Z,89.02
2018-11-14T01:03:20.749Z,89.22
2018-11-14T01:04:25.618Z,89.37
2018-11-14T01:05:30.367Z,89.27
2018-11-14T01:06:35.052Z,89.22
2018-11-14T01:07:39.699Z,89.47
2018-11-14T01:08:44.088Z,89.35
2018-11-14T01:09:48.523Z,89.42
2018-11-14T01:10:52.906Z,89.34
2018-11-14T01:11:57.682Z,89.37
2018-11-14T01:13:02.164Z,89.40
2018-11-14T01:14:06.910Z,89.34
2018-11-14T01:15:12.881Z,89.27
2018-11-14T01:16:17.273Z,89.05
2018-11-14T01:17:21.894Z,89.22
2018-11-14T01:18:26.728Z,89.21
2018-11-14T01:19:31.223Z,89.21
2018-11-14T01:20:35.608Z,89.39
2018-11-14T01:21:40.258Z,89.22
2018-11-14T01:22:44.958Z,89.36
2018-11-14T01:23:49.376Z,89.25
2018-11-14T01:24:54.278Z,89.28
2018-11-14T01:25:59.243Z,89.45
2018-11-14T01:27:03.628Z,89.01
2018-11-14T01:28:08.072Z,89.21
2018-11-14T01:29:12.528Z,89.29
2018-11-14T01:30:20.713Z,89.42
2018-11-14T01:31:25.610Z,89.27
2018-11-14T01:32:30.084Z,89.39
2018-11-14T01:33:34.578Z,89.29
2018-11-14T01:34:39.067Z,88.85
2018-11-14T01:35:43.599Z,89.34
2018-11-14T01:36:48.125Z,89.24
2018-11-14T01:37:53.334Z,89.37
2018-11-14T01:38:57.703Z,89.52
2018-11-14T01:40:02.090Z,89.08
2018-11-14T01:41:06.541Z,89.57
2018-11-14T01:42:10.933Z,89.26
2018-11-14T01:43:15.331Z,89.69
2018-11-14T01:44:19.975Z,89.39
2018-11-14T01:45:24.395Z,89.58
2018-11-14T01:46:28.760Z,89.99
2018-11-14T01:47:33.408Z,89.72
2018-11-14T01:48:37.751Z,89.87
2018-11-14T01:49:42.127Z,89.70
2018-11-14T01:50:46.828Z,89.70
2018-11-14T01:51:51.225Z,90.00
2018-11-14T01:52:55.966Z,89.94
2018-11-14T01:54:00.412Z,89.90
2018-11-14T01:55:04.802Z,89.91
2018-11-14T01:56:09.633Z,90.05
2018-11-14T01:57:14.495Z,89.72
2018-11-14T01:58:18.889Z,89.94
2018-11-14T01:59:23.237Z,89.81
2018-11-14T02:00:27.646Z,90.21
2018-11-14T02:01:32.012Z,90.07
2018-11-14T02:02:36.386Z,89.95
2018-11-14T02:03:41.171Z,89.93
2018-11-14T02:04:45.671Z,90.31
2018-11-14T02:05:50.053Z,90.15
2018-11-14T02:06:54.431Z,90.33
2018-11-14T02:07:58.931Z,90.14
2018-11-14T02:09:03.462Z,90.27
2018-11-14T02:10:09.023Z,90.44
2018-11-14T02:11:13.456Z,90.29
2018-11-14T02:12:17.949Z,90.62
2018-11-14T02:13:22.343Z,90.49
2018-11-14T02:14:28.077Z,90.80
2018-11-14T02:15:32.604Z,90.78
2018-11-14T02:16:37.857Z,90.95
2018-11-14T02:17:42.743Z,90.83
2018-11-14T02:18:47.188Z,90.77
2018-11-14T02:19:51.572Z,90.80
2018-11-14T02:20:56.006Z,90.84
2018-11-14T02:22:00.392Z,91.22
2018-11-14T02:23:05.452Z,91.25
2018-11-14T02:24:10.066Z,91.13
2018-11-14T02:25:15.344Z,91.30
2018-11-14T02:26:19.722Z,91.23
2018-11-14T02:27:24.245Z,91.20
2018-11-14T02:28:28.620Z,91.20
2018-11-14T02:29:33.385Z,91.56
2018-11-14T02:30:37.810Z,91.27
2018-11-14T02:31:42.399Z,91.52
2018-11-14T02:32:46.859Z,91.45
2018-11-14T02:33:51.903Z,91.73
2018-11-14T02:34:56.312Z,91.79
2018-11-14T02:36:01.057Z,91.94
2018-11-14T02:37:05.569Z,92.26
2018-11-14T02:38:09.921Z,91.92
2018-11-14T02:39:14.312Z,91.84
2018-11-14T02:40:20.705Z,92.21
2018-11-14T02:41:25.685Z,92.36
2018-11-14T02:42:30.089Z,92.36
2018-11-14T02:43:34.505Z,92.46
2018-11-14T02:44:39.060Z,92.23
2018-11-14T02:45:43.508Z,92.60
2018-11-14T02:46:47.932Z,92.17
2018-11-14T02:47:52.802Z,92.09
2018-11-14T02:48:57.241Z,92.37
2018-11-14T02:50:01.715Z,92.13
2018-11-14T02:51:11.519Z,92.56
2018-11-14T02:52:15.882Z,92.46
2018-11-14T02:53:20.298Z,92.61
2018-11-14T02:54:26.619Z,92.49
2018-11-14T02:55:31.063Z,92.69
2018-11-14T02:56:35.760Z,92.68
2018-11-14T02:57:44.098Z,92.69
2018-11-14T02:58:48.492Z,92.59
2018-11-14T02:59:52.858Z,92.87
2018-11-14T03:00:58.816Z,93.13
2018-11-14T03:02:03.231Z,92.76
2018-11-14T03:03:07.989Z,92.99
2018-11-14T03:04:12.413Z,92.93
2018-11-14T03:05:16.875Z,92.81
2018-11-14T03:06:21.277Z,93.19
2018-11-14T03:07:26.139Z,92.80
2018-11-14T03:08:31.952Z,93.10
2018-11-14T03:09:36.341Z,92.95
2018-11-14T03:10:40.724Z,92.88
2018-11-14T03:11:45.110Z,93.11
2018-11-14T03:12:49.511Z,93.16
2018-11-14T03:13:54.388Z,93.22
2018-11-14T03:14:58.782Z,93.27
2018-11-14T03:16:03.172Z,93.36
2018-11-14T03:17:07.545Z,93.37
2018-11-14T03:18:11.982Z,93.02
2018-11-14T03:19:16.453Z,93.41
2018-11-14T03:20:22.346Z,93.16
2018-11-14T03:21:27.357Z,93.27
2018-11-14T03:22:31.795Z,93.29
2018-11-14T03:23:36.316Z,93.38
2018-11-14T03:24:40.831Z,93.17
2018-11-14T03:25:45.234Z,93.46
2018-11-14T03:26:49.978Z,93.44
2018-11-14T03:27:54.410Z,93.49
2018-11-14T03:28:58.843Z,93.43
2018-11-14T03:30:03.401Z,93.51
2018-11-14T03:31:08.081Z,93.23
2018-11-14T03:32:12.582Z,93.65
2018-11-14T03:33:17.482Z,93.33
2018-11-14T03:34:21.954Z,93.28
2018-11-14T03:35:30.493Z,93.48
2018-11-14T03:36:35.586Z,93.63
2018-11-14T03:37:40.061Z,93.42
2018-11-14T03:38:44.865Z,93.30
2018-11-14T03:39:52.579Z,93.81
2018-11-14T03:40:56.978Z,93.88
2018-11-14T03:42:01.506Z,93.78
2018-11-14T03:43:06.122Z,93.84
2018-11-14T03:44:11.230Z,93.75
2018-11-14T03:45:16.703Z,93.65
2018-11-14T03:46:21.197Z,93.77
2018-11-14T03:47:25.693Z,94.12
2018-11-14T03:48:30.133Z,93.73
2018-11-14T03:49:34.593Z,94.09
2018-11-14T03:50:38.985Z,93.82
2018-11-14T03:51:43.944Z,93.92
2018-11-14T03:52:48.969Z,94.12
2018-11-14T03:53:53.670Z,94.25
2018-11-14T03:54:59.948Z,94.04
2018-11-14T03:56:06.769Z,93.82
2018-11-14T03:57:14.549Z,94.33
2018-11-14T03:58:22.603Z,94.04
2018-11-14T03:59:27.579Z,94.19
2018-11-14T04:00:34.395Z,94.23
2018-11-14T04:01:43.258Z,94.39
2018-11-14T04:02:50.582Z,94.33
2018-11-14T04:03:56.380Z,94.61
2018-11-14T04:05:04.965Z,94.24
2018-11-14T04:06:11.146Z,94.78
2018-11-14T04:07:16.443Z,94.42
2018-11-14T04:08:22.819Z,94.56
2018-11-14T04:09:31.305Z,94.51
2018-11-14T04:10:36.975Z,94.58
2018-11-14T04:11:43.681Z,94.54
2018-11-14T04:12:49.590Z,94.91
2018-11-14T04:13:56.655Z,95.03
2018-11-14T04:15:03.684Z,94.87
2018-11-14T04:16:10.236Z,95.09
2018-11-14T04:17:19.461Z,95.03
2018-11-14T04:18:25.712Z,94.94
2018-11-14T04:19:32.553Z,95.06
2018-11-14T04:20:39.330Z,95.00
2018-11-14T04:21:44.991Z,95.48
2018-11-14T04:22:51.441Z,95.43
2018-11-14T04:24:07.532Z,95.56
2018-11-14T04:25:15.675Z,95.34
2018-11-14T04:26:23.002Z,95.80
2018-11-14T04:27:29.100Z,95.81
2018-11-14T04:28:36.219Z,95.71
2018-11-14T04:29:44.379Z,95.63
2018-11-14T04:30:50.827Z,95.91
2018-11-14T04:31:58.124Z,96.01
2018-11-14T04:33:09.337Z,95.94
2018-11-14T04:34:16.849Z,95.98
2018-11-14T04:35:22.900Z,95.71
2018-11-14T04:36:30.820Z,95.90
2018-11-14T04:37:36.757Z,96.34
2018-11-14T04:38:42.326Z,96.07
2018-11-14T04:39:48.407Z,96.21
2018-11-14T04:40:55.357Z,96.34
2018-11-14T04:42:02.789Z,96.44
2018-11-14T04:43:07.431Z,96.43
2018-11-14T04:44:12.130Z,96.41
2018-11-14T04:45:24.202Z,96.35
2018-11-14T04:46:28.614Z,96.52
2018-11-14T04:47:33.033Z,96.42
2018-11-14T04:48:37.443Z,96.70
2018-11-14T04:49:41.815Z,96.72
2018-11-14T04:50:46.533Z,96.63
2018-11-14T04:51:50.933Z,96.47
2018-11-14T04:52:55.638Z,96.84
2018-11-14T04:54:00.065Z,96.71
2018-11-14T04:55:04.426Z,96.68
2018-11-14T04:56:08.832Z,96.84
2018-11-14T04:57:13.542Z,96.67
2018-11-14T04:58:17.940Z,96.87
2018-11-14T04:59:22.369Z,96.87
2018-11-14T05:00:27.262Z,96.65
2018-11-14T05:01:31.709Z,96.65
2018-11-14T05:02:36.163Z,96.79
2018-11-14T05:03:40.931Z,96.66
2018-11-14T05:04:48.014Z,96.76
2018-11-14T05:05:52.429Z,96.83
2018-11-14T05:06:58.177Z,96.67
2018-11-14T05:08:02.584Z,96.97
2018-11-14T05:09:08.951Z,96.76
2018-11-14T05:10:16.034Z,96.94
2018-11-14T05:11:20.444Z,96.69
2018-11-14T05:12:25.664Z,96.81
2018-11-14T05:13:30.046Z,96.97
2018-11-14T05:14:34.540Z,97.01
2018-11-14T05:15:38.957Z,97.16
2018-11-14T05:16:43.699Z,96.95
2018-11-14T05:17:48.481Z,97.06
2018-11-14T05:18:52.865Z,97.21
2018-11-14T05:19:57.264Z,97.34
2018-11-14T05:21:01.668Z,96.90
2018-11-14T05:22:06.344Z,97.03
2018-11-14T05:23:11.080Z,97.08
2018-11-14T05:24:15.501Z,97.04
2018-11-14T05:25:20.189Z,97.07
2018-11-14T05:26:25.281Z,97.31
2018-11-14T05:27:31.316Z,97.25
2018-11-14T05:28:35.712Z,97.10
2018-11-14T05:29:40.635Z,97.15
2018-11-14T05:30:46.443Z,97.13
2018-11-14T05:31:50.914Z,97.12
2018-11-14T05:32:55.310Z,97.11
2018-11-14T05:33:59.799Z,97.32
2018-11-14T05:35:05.180Z,97.34
2018-11-14T05:36:09.951Z,97.34
2018-11-14T05:37:14.992Z,97.33
2018-11-14T05:38:19.588Z,97.35
2018-11-14T05:39:25.503Z,97.46
2018-11-14T05:40:30.225Z,97.74
2018-11-14T05:41:35.103Z,97.43
2018-11-14T05:42:40.024Z,97.56
2018-11-14T05:43:44.444Z,97.63
2018-11-14T05:44:48.854Z,97.73
2018-11-14T05:45:55.089Z,97.55
2018-11-14T05:46:59.620Z,97.57
2018-11-14T05:48:05.759Z,98.03
2018-11-14T05:49:10.390Z,97.89
2018-11-14T05:50:18.877Z,97.73
2018-11-14T05:51:23.243Z,97.85
2018-11-14T05:52:28.320Z,98.05
2018-11-14T05:53:32.723Z,98.41
2018-11-14T05:54:37.319Z,98.18
2018-11-14T05:55:41.957Z,98.32
2018-11-14T05:56:47.349Z,98.25
2018-11-14T05:57:52.041Z,98.37
2018-11-14T05:58:57.453Z,98.22
2018-11-14T06:00:03.242Z,98.47
2018-11-14T06:01:07.694Z,98.53
2018-11-14T06:02:12.171Z,98.45
2018-11-14T06:03:16.578Z,98.63
2018-11-14T06:04:21.013Z,98.67
2018-11-14T06:05:25.448Z,98.56
2018-11-14T06:06:30.756Z,98.88
2018-11-14T06:07:35.648Z,98.66
2018-11-14T06:08:40.145Z,98.73
2018-11-14T06:09:45.069Z,98.70
2018-11-14T06:10:50.020Z,98.77
2018-11-14T06:11:54.442Z,98.77
2018-11-14T06:13:02.257Z,98.79
2018-11-14T06:14:07.935Z,98.98
2018-11-14T06:15:16.747Z,98.76
2018-11-14T06:16:21.352Z,98.79
2018-11-14T06:17:26.236Z,98.73
2018-11-14T06:18:31.303Z,98.80
2018-11-14T06:19:37.454Z,98.90
2018-11-14T06:20:42.568Z,98.80
2018-11-14T06:21:48.332Z,98.79
2018-11-14T06:22:53.815Z,98.83
2018-11-14T06:23:58.398Z,98.88
2018-11-14T06:25:08.266Z,98.85
2018-11-14T06:26:13.566Z,99.04
2018-11-14T06:27:18.732Z,99.12
2018-11-14T06:28:24.005Z,98.81
2018-11-14T06:29:29.035Z,98.88
2018-11-14T06:44:17.184Z,99.09
2018-11-14T06:45:23.583Z,99.50
2018-11-14T06:46:28.857Z,99.34
2018-11-14T06:47:33.812Z,99.58
2018-11-14T06:48:40.556Z,99.50
2018-11-14T06:49:46.031Z,99.53
2018-11-14T06:50:52.596Z,99.64
2018-11-14T06:51:58.366Z,99.40
2018-11-14T06:53:08.102Z,99.78
2018-11-14T06:54:12.552Z,99.62
2018-11-14T06:55:19.636Z,99.58
2018-11-14T06:56:24.781Z,99.55
2018-11-14T06:57:29.529Z,99.60
2018-11-14T06:58:34.501Z,99.57
2018-11-14T06:59:39.065Z,99.51
2018-11-14T07:00:44.324Z,99.63
2018-11-14T07:01:50.665Z,99.45
2018-11-14T07:02:56.412Z,99.47
2018-11-14T07:04:01.258Z,99.02
2018-11-14T07:05:08.931Z,99.39
2018-11-14T07:06:13.310Z,99.33
2018-11-14T07:07:18.255Z,99.21
2018-11-14T07:08:26.950Z,99.33
2018-11-14T07:09:35.572Z,99.09
2018-11-14T07:10:40.657Z,99.12
2018-11-14T07:11:47.192Z,98.54
2018-11-14T07:12:54.303Z,99.01
2018-11-14T07:14:14.522Z,98.91
2018-11-14T07:15:26.858Z,99.46
2018-11-14T07:16:33.088Z,99.01
2018-11-14T07:17:38.401Z,98.78
2018-11-14T07:18:44.474Z,98.78
2018-11-14T07:19:50.145Z,98.57
2018-11-14T07:20:56.228Z,98.25
2018-11-14T07:22:01.455Z,98.37
2018-11-14T07:23:06.862Z,98.57
2018-11-14T07:24:12.022Z,98.52
2018-11-14T07:25:16.778Z,98.67
2018-11-14T07:26:22.428Z,98.29
2018-11-14T07:27:26.984Z,98.90
2018-11-14T07:28:31.782Z,98.71
2018-11-14T07:29:36.831Z,98.64
2018-11-14T07:30:41.860Z,98.75
2018-11-14T07:31:47.478Z,98.71
2018-11-14T07:32:54.362Z,98.53
2018-11-14T07:33:59.765Z,98.56
2018-11-14T07:35:04.864Z,98.65
2018-11-14T07:36:09.366Z,98.54
2018-11-14T07:37:14.948Z,98.25
2018-11-14T07:38:41.661Z,98.55
2018-11-14T07:39:46.271Z,98.40
2018-11-14T07:40:51.309Z,98.55
2018-11-14T07:41:56.212Z,98.83
2018-11-14T07:43:00.637Z,98.87
2018-11-14T07:44:08.162Z,98.55
2018-11-14T07:45:14.843Z,98.62
2018-11-14T07:46:20.234Z,98.32
2018-11-14T07:47:26.170Z,97.54
2018-11-14T07:48:31.420Z,96.75
2018-11-14T07:49:36.136Z,95.92
2018-11-14T07:50:42.342Z,95.19
2018-11-14T07:51:49.741Z,93.73
2018-11-14T07:52:56.489Z,92.61
2018-11-14T07:54:01.430Z,92.03
2018-11-14T07:55:10.003Z,91.60
2018-11-14T07:56:14.565Z,90.55
2018-11-14T07:57:20.117Z,89.87
2018-11-14T07:58:25.218Z,87.53
2018-11-14T07:59:29.803Z,84.87
2018-11-14T08:00:34.239Z,83.53
2018-11-14T08:01:40.136Z,82.78
2018-11-14T08:02:44.814Z,81.59
2018-11-14T08:03:50.853Z,79.53
2018-11-14T08:04:57.505Z,78.10
2018-11-14T08:06:02.432Z,78.44
2018-11-14T08:07:07.754Z,76.32
2018-11-14T08:08:13.796Z,74.81
2018-11-14T08:09:20.049Z,73.03
2018-11-14T08:10:25.144Z,72.74
2018-11-14T08:11:30.022Z,72.64
2018-11-14T08:12:34.709Z,71.82
2018-11-14T08:13:40.696Z,72.08
2018-11-14T08:14:47.001Z,71.04
2018-11-14T08:15:53.927Z,69.65
2018-11-14T08:17:00.715Z,68.70
2018-11-14T08:18:05.397Z,67.79
2018-11-14T08:19:09.821Z,68.14
2018-11-14T08:20:15.052Z,68.55
2018-11-14T08:21:19.834Z,68.13
2018-11-14T08:22:25.857Z,64.72
2018-11-14T08:23:32.503Z,63.26
2018-11-14T08:24:42.516Z,62.52
2018-11-14T08:25:47.403Z,63.80
2018-11-14T08:26:53.924Z,63.67
2018-11-14T08:27:58.349Z,64.07
2018-11-14T08:29:02.818Z,63.34
2018-11-14T08:30:09.928Z,62.99
2018-11-14T08:31:14.719Z,62.02
2018-11-14T08:32:20.389Z,61.74
2018-11-14T08:33:25.569Z,61.99
2018-11-14T08:34:30.038Z,61.88
2018-11-14T08:35:34.817Z,61.12
2018-11-14T08:36:39.339Z,60.07
2018-11-14T08:37:44.453Z,58.36
2018-11-14T08:38:50.348Z,58.89
2018-11-14T08:39:54.760Z,58.59
2018-11-14T08:41:00.669Z,57.42
2018-11-14T08:42:05.225Z,56.24
2018-11-14T08:43:10.280Z,55.53
2018-11-14T08:44:15.124Z,55.68
2018-11-14T08:45:20.593Z,56.62
2018-11-14T08:46:25.020Z,56.00
2018-11-14T08:47:29.443Z,54.80
2018-11-14T08:48:34.703Z,55.49
2018-11-14T08:49:39.312Z,54.35
2018-11-14T08:50:45.923Z,54.26
2018-11-14T08:51:50.819Z,53.47
2018-11-14T08:52:56.242Z,53.12
2018-11-14T08:54:00.767Z,52.53
2018-11-14T08:55:05.324Z,52.28
2018-11-14T08:56:09.804Z,51.97
2018-11-14T08:57:15.330Z,51.80
2018-11-14T08:58:21.207Z,51.96
2018-11-14T08:59:25.677Z,52.44
2018-11-14T09:00:31.455Z,52.71
2018-11-14T09:01:37.400Z,52.61
2018-11-14T09:02:41.948Z,52.61
2018-11-14T09:03:47.111Z,51.75
2018-11-14T09:04:54.984Z,51.63
2018-11-14T09:06:05.289Z,52.42
2018-11-14T09:07:11.754Z,51.71
2018-11-14T09:08:17.851Z,51.48
2018-11-14T09:09:22.278Z,51.61
2018-11-14T09:10:27.705Z,51.49
2018-11-14T09:11:33.205Z,51.26
2018-11-14T09:12:37.824Z,50.26
2018-11-14T09:13:43.489Z,51.04
2018-11-14T09:14:49.548Z,51.16
2018-11-14T09:15:55.001Z,51.04
2018-11-14T09:16:59.473Z,52.83
2018-11-14T09:18:05.563Z,53.48
2018-11-14T09:19:10.356Z,54.62
2018-11-14T09:20:19.801Z,55.62
2018-11-14T09:21:24.253Z,55.97
2018-11-14T09:22:29.807Z,56.23
2018-11-14T09:23:35.523Z,56.58
2018-11-14T09:24:42.159Z,56.85
2018-11-14T09:25:47.679Z,57.29
2018-11-14T09:28:08.075Z,56.03
2018-11-14T09:29:14.521Z,54.08
2018-11-14T09:30:23.230Z,53.83
2018-11-14T09:31:27.997Z,51.65
2018-11-14T09:32:32.446Z,51.21
2018-11-14T09:33:38.656Z,52.39
2018-11-14T09:34:43.426Z,53.72
2018-11-14T09:35:47.946Z,54.76
2018-11-14T09:36:53.588Z,54.96
2018-11-14T09:38:00.282Z,56.20
2018-11-14T09:39:08.063Z,56.72
2018-11-14T09:40:15.336Z,57.14
2018-11-14T09:41:21.188Z,57.80
2018-11-14T09:42:26.421Z,57.98
2018-11-14T09:43:30.896Z,58.17
2018-11-14T09:44:38.108Z,58.07
2018-11-14T09:45:42.558Z,56.85
2018-11-14T09:46:57.589Z,56.29
2018-11-14T09:48:25.846Z,56.28
2018-11-14T09:49:36.208Z,56.11
2018-11-14T09:50:41.920Z,55.69
2018-11-14T09:51:48.139Z,56.05
2018-11-14T09:52:54.320Z,56.51
2018-11-14T09:53:59.056Z,56.60
2018-11-14T09:55:04.519Z,57.46
2018-11-14T09:56:09.973Z,59.00
2018-11-14T09:57:14.505Z,60.78
2018-11-14T09:58:19.373Z,61.10
2018-11-14T09:59:23.886Z,61.41
2018-11-14T10:00:30.272Z,62.43
2018-11-14T10:01:34.676Z,62.72
2018-11-14T10:02:40.214Z,62.38
2018-11-14T10:03:44.634Z,61.28
2018-11-14T10:04:49.555Z,60.65
2018-11-14T10:05:58.536Z,59.68
2018-11-14T10:08:37.185Z,58.46
2018-11-14T10:09:47.768Z,57.48
2018-11-14T10:10:56.572Z,59.21
2018-11-14T10:12:04.820Z,61.28
2018-11-14T10:13:09.270Z,61.66
2018-11-14T10:14:18.099Z,62.68
2018-11-14T10:15:24.717Z,63.80
2018-11-14T10:16:31.339Z,63.36
2018-11-14T10:17:37.081Z,65.10
2018-11-14T10:18:42.031Z,66.21
2018-11-14T10:19:47.742Z,66.71
2018-11-14T10:20:53.197Z,67.82
2018-11-14T10:21:57.692Z,67.79
2018-11-14T10:23:05.365Z,67.44
2018-11-14T10:24:10.128Z,68.56
2018-11-14T10:25:16.559Z,67.96
2018-11-14T10:26:21.840Z,68.00
2018-11-14T10:27:26.357Z,67.98
2018-11-14T10:28:31.345Z,68.05
2018-11-14T10:29:35.840Z,67.74
2018-11-14T10:30:41.366Z,67.75
2018-11-14T10:31:47.656Z,66.27
2018-11-14T10:32:53.424Z,64.00
2018-11-14T10:33:58.554Z,64.17
2018-11-14T10:35:02.995Z,65.07
2018-11-14T10:36:08.034Z,65.29
2018-11-14T10:37:13.148Z,64.94
2018-11-14T10:38:21.955Z,64.48
2018-11-14T10:39:27.286Z,64.24
2018-11-14T10:40:34.402Z,64.14
2018-11-14T10:41:39.297Z,65.00
2018-11-14T10:42:44.897Z,64.51
2018-11-14T10:43:52.776Z,64.48
2018-11-14T10:44:57.352Z,64.02
2018-11-14T10:46:01.972Z,62.86
2018-11-14T10:47:06.452Z,62.49
2018-11-14T10:48:11.209Z,63.06
2018-11-14T10:49:15.716Z,63.18
2018-11-14T10:50:22.431Z,63.39
2018-11-14T10:51:27.322Z,63.25
2018-11-14T10:52:35.450Z,62.71
2018-11-14T10:53:40.268Z,62.86
2018-11-14T10:54:46.571Z,63.00
2018-11-14T10:55:52.411Z,63.19
2018-11-14T10:56:59.372Z,63.76
2018-11-14T10:58:05.600Z,62.81
2018-11-14T10:59:11.285Z,62.31
2018-11-14T11:00:21.189Z,61.29
2018-11-14T11:01:30.953Z,61.81
2018-11-14T11:02:41.596Z,62.36
2018-11-14T11:03:51.734Z,61.60
2018-11-14T11:05:02.195Z,61.42
2018-11-14T11:08:13.489Z,62.34
2018-11-14T11:09:23.889Z,62.83
2018-11-14T11:10:34.389Z,62.70
2018-11-14T11:11:45.834Z,61.54
2018-11-14T11:12:55.465Z,61.45
2018-11-14T11:14:07.097Z,61.56
2018-11-14T11:15:16.893Z,60.93
2018-11-14T11:16:29.042Z,60.66
2018-11-14T11:17:40.426Z,61.02
2018-11-14T11:18:45.661Z,59.93
2018-11-14T11:19:52.746Z,60.69
2018-11-14T11:20:58.215Z,59.91
2018-11-14T11:22:05.752Z,59.95
2018-11-14T11:23:10.566Z,59.73
2018-11-14T11:24:19.576Z,59.49
2018-11-14T11:25:25.073Z,59.06
2018-11-14T11:26:29.772Z,58.29
2018-11-14T11:27:35.479Z,57.75
2018-11-14T11:28:41.370Z,56.90
2018-11-14T11:29:46.370Z,57.35
2018-11-14T11:43:26.690Z,63.34
2018-11-14T11:44:31.676Z,62.95
2018-11-14T11:45:36.868Z,62.30
2018-11-14T11:46:43.149Z,62.84
2018-11-14T11:47:49.720Z,63.51
2018-11-14T11:48:56.227Z,63.54
2018-11-14T11:50:01.734Z,64.39
2018-11-14T11:51:08.059Z,64.23
2018-11-14T11:52:15.481Z,63.64
2018-11-14T11:53:20.800Z,63.47
2018-11-14T11:54:26.261Z,63.13
2018-11-14T11:55:32.528Z,62.43
2018-11-14T11:56:37.254Z,62.69
2018-11-14T11:57:41.994Z,62.61
2018-11-14T11:58:47.517Z,62.30
2018-11-14T11:59:52.958Z,62.90
2018-11-14T12:00:58.829Z,63.64
2018-11-14T12:02:05.216Z,64.24
2018-11-14T12:03:09.723Z,64.48
2018-11-14T12:04:19.232Z,64.28
2018-11-14T12:05:25.684Z,64.35
2018-11-14T12:06:31.073Z,64.87
2018-11-14T12:07:36.241Z,65.35
2018-11-14T12:08:41.539Z,65.16
2018-11-14T12:09:46.449Z,65.72
2018-11-14T12:10:51.341Z,65.48
2018-11-14T12:11:55.788Z,65.05
2018-11-14T12:13:03.724Z,65.05
2018-11-14T12:14:10.722Z,65.41
2018-11-14T12:15:15.824Z,65.39
2018-11-14T12:16:22.761Z,64.11
2018-11-14T12:17:29.559Z,63.23
2018-11-14T12:18:35.662Z,61.39
2018-11-14T12:19:40.115Z,59.76
2018-11-14T12:20:47.167Z,58.32
2018-11-14T12:21:51.616Z,59.51
2018-11-14T12:22:56.139Z,59.23
2018-11-14T12:24:00.973Z,59.09
2018-11-14T12:25:05.526Z,59.20
2018-11-14T12:26:13.668Z,59.12
2018-11-14T12:27:18.270Z,59.36
2018-11-14T12:28:23.493Z,59.06
2018-11-14T12:29:29.087Z,59.12
2018-11-14T12:30:34.754Z,57.93
2018-11-14T12:31:39.479Z,57.23
2018-11-14T12:32:47.550Z,57.80
2018-11-14T12:33:52.653Z,58.45
2018-11-14T12:34:57.212Z,58.39
2018-11-14T12:36:01.654Z,57.89
2018-11-14T12:37:06.306Z,56.73
2018-11-14T12:38:12.406Z,56.72
2018-11-14T12:39:21.263Z,56.57
2018-11-14T12:40:27.594Z,56.41
2018-11-14T12:41:33.968Z,56.62
2018-11-14T12:42:38.491Z,56.24
2018-11-14T12:43:43.694Z,55.62
2018-11-14T12:44:51.209Z,55.39
2018-11-14T12:45:59.577Z,56.26
2018-11-14T12:47:05.547Z,57.01
2018-11-14T12:48:10.436Z,57.48
2018-11-14T12:49:15.513Z,57.50
2018-11-14T12:50:20.021Z,56.19
2018-11-14T12:51:25.093Z,56.61
2018-11-14T12:52:31.746Z,57.30
2018-11-14T12:53:38.352Z,57.91
2018-11-14T12:54:51.371Z,58.78
2018-11-14T12:55:56.712Z,58.49
2018-11-14T12:57:02.351Z,58.57
2018-11-14T12:58:08.945Z,59.32
2018-11-14T12:59:15.509Z,60.01
2018-11-14T13:00:22.024Z,60.39
2018-11-14T13:01:26.550Z,60.85
2018-11-14T13:02:33.321Z,60.58
2018-11-14T13:03:39.750Z,59.33
2018-11-14T13:04:44.262Z,59.64
2018-11-14T13:05:49.055Z,60.04
2018-11-14T13:06:53.533Z,59.94
2018-11-14T13:07:58.747Z,60.14
2018-11-14T13:09:03.772Z,59.66
2018-11-14T13:10:10.019Z,59.49
2018-11-14T13:11:15.328Z,59.90
2018-11-14T13:12:20.576Z,60.09
2018-11-14T13:13:31.982Z,59.38
2018-11-14T13:14:40.538Z,59.55
2018-11-14T13:15:44.985Z,60.14
2018-11-14T13:16:50.503Z,59.90
2018-11-14T13:17:56.779Z,59.76
2018-11-14T13:19:01.230Z,60.77
2018-11-14T13:20:07.906Z,61.34
2018-11-14T13:21:12.426Z,61.34
2018-11-14T13:22:18.599Z,62.42
2018-11-14T13:23:27.107Z,63.14
2018-11-14T13:24:35.109Z,63.52
2018-11-14T13:25:41.261Z,64.06
2018-11-14T13:26:47.488Z,64.81
2018-11-14T13:27:53.412Z,65.21
2018-11-14T13:28:58.885Z,65.78
2018-11-14T13:30:04.720Z,66.23
2018-11-14T13:31:09.509Z,66.40
2018-11-14T13:32:14.945Z,66.77
2018-11-14T13:33:19.684Z,66.84
2018-11-14T13:34:26.315Z,66.82
2018-11-14T13:35:31.409Z,67.29
2018-11-14T13:36:36.986Z,67.83
2018-11-14T13:37:44.845Z,67.98
2018-11-14T13:38:49.247Z,68.27
2018-11-14T13:39:54.685Z,68.57
2018-11-14T13:41:00.593Z,68.64
2018-11-14T13:42:05.861Z,69.01
2018-11-14T13:43:12.307Z,69.16
2018-11-14T13:44:19.365Z,69.50
2018-11-14T13:45:25.252Z,69.38
2018-11-14T13:46:30.787Z,70.04
2018-11-14T13:47:37.583Z,71.03
2018-11-14T13:48:43.425Z,70.71
2018-11-14T13:49:48.933Z,70.88
2018-11-14T13:50:53.492Z,70.98
2018-11-14T13:51:58.344Z,70.92
2018-11-14T13:53:04.111Z,71.25
2018-11-14T13:54:10.792Z,71.08
2018-11-14T13:55:16.960Z,71.61
2018-11-14T13:56:26.614Z,71.15
2018-11-14T13:57:34.134Z,71.30
2018-11-14T13:58:38.903Z,71.55
2018-11-14T13:59:43.374Z,71.65
2018-11-14T14:00:48.593Z,72.16
2018-11-14T14:01:54.780Z,72.34
2018-11-14T14:03:00.596Z,71.98
2018-11-14T14:04:08.387Z,71.57
2018-11-14T14:05:16.837Z,72.13
2018-11-14T14:07:37.991Z,72.57
2018-11-14T14:08:46.343Z,72.35
2018-11-14T14:09:52.366Z,72.82
2018-11-14T14:10:59.047Z,73.01
2018-11-14T14:12:04.578Z,72.85
2018-11-14T14:13:09.803Z,72.65
2018-11-14T14:14:21.701Z,72.69
2018-11-14T14:15:31.478Z,72.52
2018-11-14T14:16:38.169Z,72.46
2018-11-14T14:17:47.410Z,72.80
2018-11-14T14:18:54.461Z,72.77
2018-11-14T14:20:04.928Z,72.74
2018-11-14T14:21:15.838Z,72.85
2018-11-14T14:22:23.390Z,72.74
2018-11-14T14:23:28.804Z,72.98
2018-11-14T14:24:35.493Z,73.38
2018-11-14T14:25:42.664Z,73.39
2018-11-14T14:26:48.627Z,73.70
2018-11-14T14:27:59.324Z,73.63
2018-11-14T14:29:05.382Z,73.70
2018-11-14T14:30:12.137Z,73.29
2018-11-14T14:31:17.073Z,73.69
2018-11-14T14:32:23.807Z,73.89
2018-11-14T14:33:29.831Z,73.59
2018-11-14T14:34:35.239Z,73.96
2018-11-14T14:35:40.364Z,74.37
2018-11-14T14:36:45.218Z,74.65
2018-11-14T14:37:49.855Z,74.55
2018-11-14T14:38:57.488Z,74.64